createdAt,value
2022-12-14T00:03:45.401Z,240.73
2022-12-14T00:08:49.609Z,218.70
2022-12-14T00:13:54.379Z,144.60
2022-12-14T00:18:59.332Z,131.70
2022-12-14T00:24:01.653Z,110.77
2022-12-14T00:29:03.929Z,96.13
2022-12-14T00:34:06.713Z,101.33
2022-12-14T00:39:08.952Z,104.63
2022-12-14T00:44:11.992Z,89.77
2022-12-14T00:49:14.468Z,118.23
2022-12-14T00:54:16.845Z,105.40
2022-12-14T00:59:22.856Z,84.17
2022-12-14T01:04:28.977Z,81.27
2022-12-14T01:09:31.421Z,90.87
2022-12-14T01:14:33.808Z,93.77
2022-12-14T01:19:36.017Z,79.87
2022-12-14T01:24:38.304Z,78.97
2022-12-14T01:29:40.614Z,76.60
2022-12-14T01:34:42.887Z,81.40
2022-12-14T01:39:45.132Z,76.30
2022-12-14T01:44:55.012Z,93.67
2022-12-14T01:50:08.427Z,125.00
2022-12-14T01:55:16.826Z,89.37
2022-12-14T02:00:19.602Z,106.10
2022-12-14T02:05:23.793Z,90.83
2022-12-14T02:10:29.183Z,92.17
2022-12-14T02:15:32.408Z,87.23
2022-12-14T02:21:22.320Z,85.20
2022-12-14T02:26:39.801Z,81.97
2022-12-14T02:31:52.234Z,73.67
2022-12-14T02:37:12.366Z,72.20
2022-12-14T02:42:24.238Z,71.83
2022-12-14T02:47:31.584Z,80.57
2022-12-14T02:52:48.595Z,78.80
2022-12-14T02:57:59.892Z,81.03
2022-12-14T03:03:04.523Z,91.17
2022-12-14T03:08:12.136Z,133.83
2022-12-14T03:13:24.914Z,107.60
2022-12-14T03:18:32.709Z,72.37
2022-12-14T03:23:38.680Z,76.47
2022-12-14T03:28:48.705Z,110.03
2022-12-14T03:33:53.818Z,71.33
2022-12-14T03:39:00.646Z,72.83
2022-12-14T03:44:26.008Z,71.90
2022-12-14T03:49:43.056Z,71.67
2022-12-14T03:55:01.266Z,75.20
2022-12-14T04:00:06.926Z,61.93
2022-12-14T04:05:31.996Z,68.57
2022-12-14T04:11:20.804Z,63.30
2022-12-14T04:16:46.299Z,70.83
2022-12-14T04:21:58.641Z,64.17
2022-12-14T04:27:15.632Z,83.00
2022-12-14T04:32:20.718Z,102.07
2022-12-14T04:37:27.649Z,76.37
2022-12-14T04:42:34.021Z,56.80
2022-12-14T04:47:43.691Z,51.57
2022-12-14T04:52:52.079Z,51.47
2022-12-14T04:58:20.011Z,56.60
2022-12-14T05:03:35.883Z,63.63
2022-12-14T05:08:49.144Z,58.77
2022-12-14T05:13:51.562Z,57.53
2022-12-14T05:18:53.872Z,76.03
2022-12-14T05:23:57.260Z,100.40
2022-12-14T05:28:59.470Z,60.97
2022-12-14T05:34:01.806Z,63.93
2022-12-14T05:39:04.229Z,72.37
2022-12-14T05:44:06.519Z,66.57
2022-12-14T05:49:08.821Z,65.70
2022-12-14T05:54:11.378Z,67.77
2022-12-14T05:59:15.796Z,72.90
2022-12-14T06:04:18.937Z,75.17
2022-12-14T06:09:21.254Z,68.90
2022-12-14T06:14:24.431Z,70.13
2022-12-14T06:19:26.707Z,77.97
2022-12-14T06:24:28.954Z,78.10
2022-12-14T06:29:31.336Z,82.23
2022-12-14T06:34:54.280Z,84.67
2022-12-14T06:39:57.022Z,69.33
2022-12-14T06:44:59.302Z,75.33
2022-12-14T06:50:01.751Z,79.07
2022-12-14T06:55:05.144Z,64.33
2022-12-14T07:00:11.391Z,69.77
2022-12-14T07:05:14.796Z,60.13
2022-12-14T07:10:17.295Z,65.27
2022-12-14T07:15:20.140Z,130.37
2022-12-14T07:20:22.462Z,102.70
2022-12-14T07:25:27.379Z,93.30
2022-12-14T07:30:29.774Z,90.83
2022-12-14T07:35:32.304Z,107.00
2022-12-14T07:40:34.699Z,155.30
2022-12-14T07:45:37.168Z,242.20
2022-12-14T07:50:39.562Z,221.47
2022-12-14T07:55:41.893Z,138.37
2022-12-14T08:00:44.152Z,184.63
2022-12-14T08:05:46.370Z,149.90
2022-12-14T08:10:49.146Z,109.13
2022-12-14T08:15:51.485Z,138.17
2022-12-14T08:20:53.719Z,110.37
2022-12-14T08:25:56.864Z,80.53
2022-12-14T08:31:04.742Z,73.93
2022-12-14T08:36:10.171Z,66.50
2022-12-14T08:41:15.141Z,74.43
2022-12-14T08:46:29.936Z,117.13
2022-12-14T08:51:32.434Z,99.87
2022-12-14T08:56:35.228Z,210.77
2022-12-14T09:01:37.701Z,104.43
2022-12-14T09:06:40.091Z,84.83
2022-12-14T09:11:42.398Z,95.83
2022-12-14T09:16:45.043Z,130.63
2022-12-14T09:21:47.387Z,113.27
2022-12-14T09:26:50.278Z,261.80
2022-12-14T09:31:54.895Z,131.03
2022-12-14T09:36:57.533Z,74.03
2022-12-14T09:42:06.781Z,105.97
2022-12-14T09:47:15.487Z,72.10
2022-12-14T09:52:41.789Z,85.60
2022-12-14T09:57:47.462Z,147.47
2022-12-14T10:03:41.594Z,217.50
2022-12-14T10:08:55.152Z,115.03
2022-12-14T10:14:17.186Z,163.07
2022-12-14T10:19:33.605Z,100.90
2022-12-14T10:24:49.412Z,101.20
2022-12-14T10:30:08.384Z,79.77
2022-12-14T10:35:14.448Z,90.43
2022-12-14T10:40:34.544Z,175.13
2022-12-14T10:46:14.533Z,100.50
2022-12-14T10:51:22.585Z,113.87
2022-12-14T10:56:32.347Z,209.73
2022-12-14T11:01:35.252Z,163.90
2022-12-14T11:06:37.599Z,96.37
2022-12-14T11:11:40.023Z,164.83
2022-12-14T11:16:42.712Z,114.63
2022-12-14T11:21:55.483Z,98.40
2022-12-14T11:27:13.108Z,103.57
2022-12-14T11:32:22.866Z,132.27
2022-12-14T11:37:30.978Z,86.03
2022-12-14T11:42:34.174Z,92.00
2022-12-14T11:47:36.638Z,100.73
2022-12-14T11:52:38.971Z,125.13
2022-12-14T11:57:50.392Z,90.23
2022-12-14T12:03:03.456Z,106.97
2022-12-14T12:08:15.448Z,157.80
2022-12-14T12:13:31.817Z,131.40
2022-12-14T12:18:46.873Z,215.93
2022-12-14T12:23:53.111Z,147.97
2022-12-14T12:29:03.793Z,127.13
2022-12-14T12:34:16.327Z,173.87
2022-12-14T12:39:24.827Z,142.93
2022-12-14T12:44:49.754Z,190.13
2022-12-14T12:49:52.567Z,213.50
2022-12-14T12:55:03.121Z,153.07
2022-12-14T13:00:07.144Z,147.60
2022-12-14T13:05:44.991Z,137.60
2022-12-14T13:11:16.844Z,180.33
2022-12-14T13:16:33.358Z,105.73
2022-12-14T13:21:49.837Z,235.70
2022-12-14T13:27:15.461Z,235.80
2022-12-14T13:32:55.588Z,247.00
2022-12-14T13:38:31.150Z,138.27
2022-12-14T13:44:15.914Z,130.63
2022-12-14T13:49:21.804Z,144.03
2022-12-14T13:54:40.112Z,147.87
2022-12-14T13:59:48.287Z,207.97
2022-12-14T14:04:50.547Z,146.47
2022-12-14T14:09:55.524Z,176.83
2022-12-14T14:15:07.528Z,215.53
2022-12-14T14:20:30.868Z,137.73
2022-12-14T14:25:42.970Z,135.67
2022-12-14T14:30:51.701Z,144.43
2022-12-14T14:36:33.013Z,161.60
2022-12-14T14:41:39.350Z,191.83
2022-12-14T14:46:45.993Z,198.17
2022-12-14T14:51:48.386Z,168.07
2022-12-14T14:56:53.527Z,164.87
2022-12-14T15:02:00.494Z,137.43
2022-12-14T15:07:07.489Z,163.10
2022-12-14T15:12:42.008Z,136.23
2022-12-14T15:17:44.319Z,145.93
2022-12-14T15:22:46.675Z,137.40
2022-12-14T15:27:49.558Z,133.13
2022-12-14T15:33:02.615Z,140.50
2022-12-14T15:38:06.869Z,121.37
2022-12-14T15:43:21.996Z,119.17
2022-12-14T15:48:34.200Z,135.17
2022-12-14T15:53:51.457Z,145.70
2022-12-14T15:58:53.888Z,143.93
2022-12-14T16:04:04.743Z,234.60
2022-12-14T16:09:34.479Z,191.80
2022-12-14T16:14:46.445Z,207.50
2022-12-14T16:20:09.989Z,204.00
2022-12-14T16:25:18.181Z,221.10
2022-12-14T16:30:23.243Z,202.43
2022-12-14T16:35:26.783Z,192.10
2022-12-14T16:40:59.621Z,217.23
2022-12-14T16:46:04.789Z,219.60
2022-12-14T16:51:32.690Z,189.87
2022-12-14T16:56:45.604Z,163.50
2022-12-14T17:01:52.681Z,170.43
2022-12-14T17:07:19.650Z,203.97
2022-12-14T17:12:32.158Z,184.20
2022-12-14T17:17:46.285Z,162.20
2022-12-14T17:23:00.740Z,136.70
2022-12-14T17:28:30.952Z,154.57
2022-12-14T17:33:33.817Z,170.40
2022-12-14T17:38:36.362Z,207.93
2022-12-14T17:43:41.651Z,150.23
2022-12-14T17:48:50.326Z,134.70
2022-12-14T17:53:53.778Z,138.33
2022-12-14T17:58:56.065Z,140.57
2022-12-14T18:03:58.334Z,143.50
2022-12-14T18:09:00.678Z,214.10
2022-12-14T18:14:02.973Z,149.40
2022-12-14T18:19:05.553Z,161.67
2022-12-14T18:24:11.868Z,153.33
2022-12-14T18:29:14.494Z,122.40
2022-12-14T18:34:17.029Z,190.02
2022-12-14T18:39:19.870Z,194.30
2022-12-14T18:44:22.329Z,130.87
2022-12-14T18:49:24.619Z,144.73
2022-12-14T18:54:26.926Z,176.83
2022-12-14T18:59:31.682Z,243.30
2022-12-14T19:04:35.203Z,311.33
2022-12-14T19:09:37.519Z,163.23
2022-12-14T19:14:40.339Z,144.20
2022-12-14T19:19:44.679Z,148.63
2022-12-14T19:24:52.159Z,142.43
2022-12-14T19:29:54.886Z,168.53
2022-12-14T19:34:57.131Z,137.00
2022-12-14T19:40:02.064Z,162.17
2022-12-14T19:45:05.247Z,212.73
2022-12-14T19:50:07.896Z,183.87
2022-12-14T19:55:11.824Z,185.27
2022-12-14T20:00:14.482Z,192.23
2022-12-14T20:05:16.998Z,172.73
2022-12-14T20:10:19.546Z,112.27
2022-12-14T20:15:21.824Z,118.83
2022-12-14T20:20:24.475Z,119.67
2022-12-14T20:25:26.762Z,152.83
2022-12-14T20:30:30.582Z,140.73
2022-12-14T20:35:33.733Z,107.93
2022-12-14T20:40:39.078Z,106.57
2022-12-14T20:45:44.148Z,107.47
2022-12-14T20:50:49.809Z,91.73
2022-12-14T20:55:54.306Z,91.00
2022-12-14T21:00:56.599Z,91.17
2022-12-14T21:06:00.225Z,101.10
2022-12-14T21:11:23.020Z,97.37
2022-12-14T21:16:25.317Z,96.50
2022-12-14T21:21:28.055Z,96.27
2022-12-14T21:26:30.314Z,115.60
2022-12-14T21:31:33.326Z,116.53
2022-12-14T21:36:35.667Z,119.77
2022-12-14T21:41:56.582Z,115.77
2022-12-14T21:46:58.831Z,133.80
2022-12-14T21:52:05.739Z,137.33
2022-12-14T21:57:40.766Z,119.10
2022-12-14T22:02:43.257Z,107.37
2022-12-14T22:07:46.726Z,105.10
2022-12-14T22:12:49.016Z,98.03
2022-12-14T22:17:51.817Z,99.97
2022-12-14T22:22:54.451Z,99.10
2022-12-14T22:27:56.746Z,126.10
2022-12-14T22:32:59.012Z,183.17
2022-12-14T22:38:01.333Z,165.23
2022-12-14T22:43:03.586Z,188.30
2022-12-14T22:48:06.073Z,162.57
2022-12-14T22:53:08.340Z,145.63
2022-12-14T22:58:13.187Z,141.50
2022-12-14T23:03:15.721Z,107.67
2022-12-14T23:08:18.227Z,94.27
2022-12-14T23:13:38.936Z,91.00
2022-12-14T23:18:59.883Z,96.50
2022-12-14T23:24:20.840Z,105.37
2022-12-14T23:29:41.997Z,120.33
2022-12-14T23:35:03.025Z,122.73
2022-12-14T23:40:24.572Z,123.23
2022-12-14T23:45:45.612Z,133.17
2022-12-14T23:51:06.533Z,135.93
2022-12-14T23:56:27.600Z,129.57
